SSEC Globe Logo

Space Science and Engineering Center

Regional Terminal Forecasts

KMSN 240520Z 2406/2506 VRB03KT P6SM SKC FM241500 20008KT
     P6SM SKC=
KMKE 240520Z 2406/2512 11003KT P6SM FEW250 FM241500 16006KT
     P6SM FEW250 FM241800 15011KT P6SM FEW250 FM250100
     18006KT P6SM FEW250 FM250600 22005KT P6SM FEW250=
KGRB 240520Z 2406/2506 13005KT P6SM SCT250 FM240900 VRB02KT
     P6SM SCT200 FM241400 20008KT P6SM BKN200 FM241700
     22010G15KT P6SM BKN200 FM242300 20008KT P6SM SCT200=
KAUW 240520Z 2406/2506 36005KT P6SM SCT250 FM240800 13003KT
     P6SM BKN200 FM241500 20010G16KT P6SM BKN140 FM242200
     22009KT P6SM SCT150 FM250200 21008KT P6SM BKN200=
KEAU 240520Z 2406/2506 VRB03KT P6SM SKC FM241700 20013G21KT
     P6SM FEW250 FM242100 21012G20KT P6SM SCT250 FM250100
     19008KT P6SM SCT150 FM250400 19008KT P6SM BKN100=
KLSE 240525Z 2406/2506 VRB03KT P6SM SKC FM241500 19007KT
     P6SM SKC=
KDBQ 240610Z 2406/2506 VRB02KT P6SM SKC FM241500 19007KT
     P6SM FEW200=
TAF KRFD 240520Z 2406/2506 15004KT P6SM SCT250 FM241400
     17008KT P6SM SCT120 BKN250 FM250300 19004KT P6SM
     FEW250=
KORD 240520Z 2406/2512 16004KT P6SM BKN250 FM241300 12007KT
     P6SM SCT150 BKN250 FM241900 10011KT P6SM BKN120
     FM250200 13005KT P6SM SCT070=